createdAt,value
2017-01-02T00:02:58.839Z,87.367
2017-01-02T00:06:04.231Z,87.397
2017-01-02T00:09:09.631Z,87.404
2017-01-02T00:12:15.039Z,87.298
2017-01-02T00:15:20.633Z,87.025
2017-01-02T00:21:25.859Z,87.114
2017-01-02T00:24:31.548Z,87.377
2017-01-02T00:27:43.300Z,87.529
2017-01-02T00:30:42.625Z,87.603
2017-01-02T00:33:54.293Z,87.915
2017-01-02T00:36:59.865Z,87.587
2017-01-02T00:40:05.424Z,87.751
2017-01-02T00:43:10.836Z,88.071
2017-01-02T00:46:10.385Z,87.864
2017-01-02T00:49:22.089Z,87.560
2017-01-02T00:52:27.416Z,88.139
2017-01-02T00:55:26.793Z,88.018
2017-01-02T00:58:32.486Z,88.479
2017-01-02T01:01:38.063Z,88.276
2017-01-02T01:04:49.921Z,88.322
2017-01-02T01:07:55.306Z,88.254
2017-01-02T01:11:00.716Z,88.675
2017-01-02T01:14:05.676Z,88.097
2017-01-02T01:17:11.103Z,88.365
2017-01-02T01:20:16.444Z,88.424
2017-01-02T01:23:15.816Z,88.579
2017-01-02T01:26:21.535Z,88.558
2017-01-02T01:29:27.298Z,88.467
2017-01-02T01:32:38.938Z,88.794
2017-01-02T01:35:38.415Z,88.865
2017-01-02T01:38:44.155Z,88.572
2017-01-02T01:41:50.099Z,88.611
2017-01-02T01:44:55.798Z,88.463
2017-01-02T01:48:01.545Z,88.474
2017-01-02T01:51:13.243Z,88.840
2017-01-02T01:54:18.654Z,88.635
2017-01-02T01:57:24.076Z,88.397
2017-01-02T02:00:29.623Z,88.625
2017-01-02T02:03:35.070Z,88.206
2017-01-02T02:06:34.508Z,88.105
2017-01-02T02:09:40.178Z,88.348
2017-01-02T02:12:45.862Z,88.162
2017-01-02T02:15:51.558Z,88.278
2017-01-02T02:18:57.983Z,88.634
2017-01-02T02:22:09.706Z,88.106
2017-01-02T02:25:15.001Z,88.183
2017-01-02T02:28:14.416Z,88.192
2017-01-02T02:31:26.118Z,88.492
2017-01-02T02:34:25.651Z,88.355
2017-01-02T02:37:31.390Z,88.630
2017-01-02T02:40:43.092Z,88.546
2017-01-02T02:43:42.554Z,88.672
2017-01-02T02:46:54.385Z,88.565
2017-01-02T02:49:59.800Z,88.296
2017-01-02T02:52:59.158Z,88.587
2017-01-02T02:56:10.877Z,88.856
2017-01-02T02:59:10.283Z,88.552
2017-01-02T03:02:15.990Z,88.543
2017-01-02T03:05:21.547Z,88.309
2017-01-02T03:08:33.334Z,88.425
2017-01-02T03:11:38.318Z,88.705
2017-01-02T03:14:43.729Z,88.518
2017-01-02T03:17:49.183Z,88.383
2017-01-02T03:20:54.841Z,88.548
2017-01-02T03:24:00.353Z,88.632
2017-01-02T03:27:05.740Z,88.421
2017-01-02T03:30:11.307Z,88.300
2017-01-02T03:33:16.934Z,88.646
2017-01-02T03:36:16.289Z,88.798
2017-01-02T03:39:22.073Z,88.330
2017-01-02T03:42:33.878Z,87.845
2017-01-02T03:45:39.334Z,87.019
2017-01-02T03:48:44.775Z,86.997
2017-01-02T03:51:50.135Z,86.983
2017-01-02T03:54:49.546Z,87.267
2017-01-02T03:58:01.235Z,87.157
2017-01-02T04:01:06.574Z,87.294
2017-01-02T04:04:12.072Z,87.509
2017-01-02T04:07:11.434Z,87.874
2017-01-02T04:10:23.117Z,87.840
2017-01-02T04:13:28.607Z,87.803
2017-01-02T04:16:34.109Z,87.939
2017-01-02T04:19:39.540Z,87.680
2017-01-02T04:22:45.003Z,87.954
2017-01-02T04:25:50.449Z,87.777
2017-01-02T04:28:49.995Z,88.164
2017-01-02T04:31:55.473Z,87.461
2017-01-02T04:35:07.324Z,87.846
2017-01-02T04:38:06.926Z,87.487
2017-01-02T04:41:18.812Z,87.406
2017-01-02T04:44:24.158Z,87.667
2017-01-02T04:47:23.545Z,87.845
2017-01-02T04:50:35.257Z,87.805
2017-01-02T04:53:40.624Z,88.099
2017-01-02T04:56:46.005Z,88.295
2017-01-02T04:59:45.524Z,88.653
2017-01-02T05:02:51.137Z,88.842
2017-01-02T05:05:56.892Z,89.215
2017-01-02T05:09:02.506Z,88.666
2017-01-02T05:12:09.284Z,88.268
2017-01-02T05:15:20.865Z,88.307
2017-01-02T05:18:20.143Z,88.259
2017-01-02T05:21:31.821Z,88.025
2017-01-02T05:24:37.175Z,87.969
2017-01-02T05:27:42.606Z,88.102
2017-01-02T05:30:42.067Z,87.997
2017-01-02T05:33:53.770Z,87.800
2017-01-02T05:36:53.179Z,87.704
2017-01-02T05:40:04.832Z,87.311
2017-01-02T05:43:10.219Z,87.251
2017-01-02T05:46:15.612Z,87.388
2017-01-02T05:49:14.996Z,87.106
2017-01-02T05:52:20.714Z,87.144
2017-01-02T05:55:26.437Z,87.272
2017-01-02T05:58:37.929Z,87.691
2017-01-02T06:01:37.279Z,88.203
2017-01-02T06:04:42.831Z,88.182
2017-01-02T06:07:48.677Z,87.933
2017-01-02T06:11:00.136Z,88.028
2017-01-02T06:14:05.426Z,88.306
2017-01-02T06:20:16.239Z,88.664
2017-01-02T06:23:21.475Z,88.726
2017-01-02T06:26:26.807Z,88.753
2017-01-02T06:29:32.160Z,88.794
2017-01-02T06:32:37.535Z,88.779
2017-01-02T06:35:36.941Z,88.625
2017-01-02T06:38:42.626Z,88.119
2017-01-02T06:41:54.491Z,88.236
2017-01-02T06:44:59.675Z,88.046
2017-01-02T06:47:59.177Z,88.042
2017-01-02T06:51:10.794Z,88.117
2017-01-02T06:54:16.228Z,88.092
2017-01-02T06:57:15.671Z,87.784
2017-01-02T07:00:21.392Z,87.950
2017-01-02T07:03:33.078Z,87.708
2017-01-02T07:06:32.558Z,87.391
2017-01-02T07:09:44.330Z,87.252
2017-01-02T07:12:49.611Z,86.864
2017-01-02T07:15:54.957Z,87.135
2017-01-02T07:19:00.319Z,86.840
2017-01-02T07:22:05.633Z,86.093
2017-01-02T07:25:04.856Z,86.042
2017-01-02T07:28:16.584Z,85.400
2017-01-02T07:31:21.882Z,85.104
2017-01-02T07:34:27.449Z,84.692
2017-01-02T07:37:32.614Z,84.469
2017-01-02T07:40:38.001Z,84.588
2017-01-02T07:46:48.366Z,83.872
2017-01-02T07:49:47.766Z,83.869
2017-01-02T07:56:00.816Z,83.695
2017-01-02T07:59:06.273Z,83.776
2017-01-02T08:02:11.544Z,83.915
2017-01-02T08:05:10.983Z,84.243
2017-01-02T08:08:22.503Z,84.363
2017-01-02T08:11:27.600Z,83.597
2017-01-02T08:14:32.874Z,83.598
2017-01-02T08:17:32.137Z,83.249
2017-01-02T08:20:43.834Z,83.720
2017-01-02T08:23:48.881Z,84.013
2017-01-02T08:26:48.039Z,82.990
2017-01-02T08:29:59.705Z,83.353
2017-01-02T08:33:04.938Z,83.211
2017-01-02T08:36:10.191Z,83.005
2017-01-02T08:39:15.204Z,82.699
2017-01-02T08:42:20.490Z,83.422
2017-01-02T08:45:25.193Z,83.612
2017-01-02T08:48:30.499Z,82.718
2017-01-02T08:51:35.852Z,83.331
2017-01-02T08:54:41.086Z,82.855
2017-01-02T08:57:46.328Z,83.216
2017-01-02T09:00:51.711Z,83.125
2017-01-02T09:03:56.934Z,82.747
2017-01-02T09:07:02.277Z,82.452
2017-01-02T09:10:07.193Z,82.558
2017-01-02T09:13:12.466Z,82.870
2017-01-02T09:16:17.541Z,82.747
2017-01-02T09:19:22.883Z,80.809
2017-01-02T09:22:21.977Z,82.577
2017-01-02T09:25:27.702Z,81.950
2017-01-02T09:28:39.421Z,81.106
2017-01-02T09:31:38.732Z,81.747
2017-01-02T09:34:50.369Z,81.713
2017-01-02T09:37:55.733Z,82.492
2017-01-02T09:41:01.055Z,80.867
2017-01-02T09:44:06.336Z,81.222
2017-01-02T09:47:11.790Z,81.430
2017-01-02T09:50:17.216Z,81.985
2017-01-02T09:53:22.497Z,80.915
2017-01-02T09:56:27.919Z,80.271
2017-01-02T10:02:32.798Z,80.542
2017-01-02T10:05:44.542Z,79.860
2017-01-02T10:08:49.781Z,81.357
2017-01-02T10:11:49.083Z,79.879
2017-01-02T10:15:00.862Z,80.096
2017-01-02T10:18:00.194Z,79.182
2017-01-02T10:21:11.969Z,79.096
2017-01-02T10:24:17.422Z,79.585
2017-01-02T10:27:16.757Z,79.419
2017-01-02T10:30:28.463Z,79.598
2017-01-02T10:33:27.852Z,79.421
2017-01-02T10:36:39.562Z,79.737
2017-01-02T10:39:44.915Z,79.093
2017-01-02T10:42:50.076Z,77.834
2017-01-02T10:45:49.396Z,77.496
2017-01-02T10:49:00.723Z,77.614
2017-01-02T10:52:06.206Z,77.216
2017-01-02T10:55:05.434Z,77.310
2017-01-02T10:58:11.106Z,76.000
2017-01-02T11:01:16.897Z,74.525
2017-01-02T11:04:28.804Z,74.123
2017-01-02T11:10:39.856Z,74.476
2017-01-02T11:13:39.329Z,75.203
2017-01-02T11:16:45.149Z,75.010
2017-01-02T11:19:56.827Z,75.915
2017-01-02T11:23:01.871Z,75.360
2017-01-02T11:26:01.185Z,75.285
2017-01-02T11:29:12.811Z,74.120
2017-01-02T11:32:18.116Z,74.957
2017-01-02T11:35:23.328Z,73.808
2017-01-02T11:38:22.755Z,74.696
2017-01-02T11:41:34.365Z,73.574
2017-01-02T11:44:33.672Z,74.404
2017-01-02T11:47:45.429Z,73.328
2017-01-02T11:50:50.692Z,74.701
2017-01-02T11:53:56.064Z,74.710
2017-01-02T11:57:01.449Z,74.389
2017-01-02T12:00:00.819Z,74.852
2017-01-02T12:03:12.505Z,74.761
2017-01-02T12:06:17.825Z,75.139
2017-01-02T12:09:17.119Z,75.026
2017-01-02T12:12:22.929Z,75.863
2017-01-02T12:15:28.522Z,74.500
2017-01-02T12:18:34.191Z,74.166
2017-01-02T12:21:45.408Z,74.743
2017-01-02T12:24:50.625Z,74.061
2017-01-02T12:27:49.705Z,74.708
2017-01-02T12:31:01.385Z,74.824
2017-01-02T12:34:00.166Z,74.363
2017-01-02T12:37:11.815Z,74.714
2017-01-02T12:40:17.169Z,74.847
2017-01-02T12:43:16.447Z,74.382
2017-01-02T12:46:28.139Z,73.633
2017-01-02T12:49:27.479Z,73.150
2017-01-02T12:52:39.209Z,72.921
2017-01-02T12:55:44.548Z,73.231
2017-01-02T12:58:43.904Z,73.349
2017-01-02T13:01:55.359Z,72.344
2017-01-02T13:04:54.689Z,74.472
2017-01-02T13:08:06.332Z,74.548
2017-01-02T13:11:05.643Z,74.395
2017-01-02T13:14:11.295Z,75.512
2017-01-02T13:17:22.941Z,75.247
2017-01-02T13:20:22.285Z,73.365
2017-01-02T13:23:34.035Z,74.119
2017-01-02T13:26:33.404Z,72.303
2017-01-02T13:29:45.073Z,72.838
2017-01-02T13:32:44.453Z,73.758
2017-01-02T13:35:49.990Z,73.207
2017-01-02T13:39:01.761Z,73.773
2017-01-02T13:42:01.044Z,73.724
2017-01-02T13:45:06.794Z,73.334
2017-01-02T13:48:18.365Z,74.628
2017-01-02T13:51:23.706Z,74.761
2017-01-02T13:54:28.744Z,75.251
2017-01-02T13:57:28.144Z,75.402
2017-01-02T14:00:33.702Z,75.729
2017-01-02T14:03:45.352Z,74.820
2017-01-02T14:06:44.571Z,74.948
2017-01-02T14:09:56.298Z,75.630
2017-01-02T14:13:01.564Z,76.284
2017-01-02T14:19:12.514Z,75.725
2017-01-02T14:22:17.847Z,75.925
2017-01-02T14:25:23.060Z,75.326
2017-01-02T14:28:28.329Z,74.891
2017-01-02T14:31:33.611Z,75.468
2017-01-02T14:34:38.804Z,75.620
2017-01-02T14:40:49.585Z,75.998
2017-01-02T14:43:48.808Z,76.530
2017-01-02T14:46:54.342Z,76.771
2017-01-02T14:50:00.012Z,75.992
2017-01-02T14:53:11.763Z,76.638
2017-01-02T14:56:17.261Z,76.863
2017-01-02T14:59:22.706Z,77.127
2017-01-02T15:02:28.106Z,76.931
2017-01-02T15:05:33.339Z,76.822
2017-01-02T15:08:32.618Z,77.109
2017-01-02T15:11:42.426Z,76.996
2017-01-02T15:14:47.634Z,77.406
2017-01-02T15:17:52.812Z,77.250
2017-01-02T15:20:57.805Z,77.466
2017-01-02T15:23:56.753Z,77.314
2017-01-02T15:27:07.593Z,77.393
2017-01-02T15:29:55.844Z,77.674
2017-01-02T15:32:59.148Z,77.968
2017-01-02T15:35:58.385Z,77.946
2017-01-02T15:39:10.009Z,78.100
2017-01-02T15:42:15.350Z,78.591
2017-01-02T15:45:20.442Z,78.978
2017-01-02T15:48:19.656Z,79.378
2017-01-02T15:51:30.981Z,79.661
2017-01-02T15:54:36.173Z,80.013
2017-01-02T15:57:35.488Z,80.634
2017-01-02T16:00:47.182Z,81.207
2017-01-02T16:03:52.455Z,81.368
2017-01-02T16:06:51.870Z,81.385
2017-01-02T16:10:03.485Z,81.420
2017-01-02T16:13:08.691Z,81.690
2017-01-02T16:16:13.846Z,81.967
2017-01-02T16:19:12.974Z,82.294
2017-01-02T16:22:18.469Z,81.830
2017-01-02T16:25:29.718Z,82.174
2017-01-02T16:28:28.927Z,82.294
2017-01-02T16:31:34.309Z,82.151
2017-01-02T16:34:45.901Z,81.580
2017-01-02T16:37:50.546Z,81.960
2017-01-02T16:40:55.799Z,82.346
2017-01-02T16:43:54.783Z,82.609
2017-01-02T16:47:06.353Z,82.379
2017-01-02T16:50:11.773Z,82.255
2017-01-02T16:53:17.085Z,82.294
2017-01-02T16:56:16.351Z,82.179
2017-01-02T16:59:22.169Z,82.514
2017-01-02T17:02:33.962Z,82.515
2017-01-02T17:05:39.119Z,82.450
2017-01-02T17:08:38.298Z,82.931
2017-01-02T17:11:49.808Z,82.729
2017-01-02T17:14:55.069Z,82.750
2017-01-02T17:18:00.191Z,82.958
2017-01-02T17:21:05.464Z,82.661
2017-01-02T17:24:10.509Z,82.587
2017-01-02T17:27:15.675Z,82.247
2017-01-02T17:30:20.815Z,82.160
2017-01-02T17:33:26.069Z,82.170
2017-01-02T17:36:31.285Z,82.044
2017-01-02T17:39:30.474Z,82.070
2017-01-02T17:42:42.072Z,81.939
2017-01-02T17:45:47.405Z,82.079
2017-01-02T17:48:52.459Z,82.158
2017-01-02T17:51:57.757Z,82.121
2017-01-02T17:55:02.917Z,81.985
2017-01-02T17:58:07.991Z,82.011
2017-01-02T18:01:13.123Z,82.075
2017-01-02T18:04:18.156Z,81.999
2017-01-02T18:07:17.319Z,82.079
2017-01-02T18:10:28.729Z,82.020
2017-01-02T18:13:34.374Z,81.894
2017-01-02T18:19:45.246Z,81.605
2017-01-02T18:22:50.439Z,81.580
2017-01-02T18:25:55.511Z,81.474
2017-01-02T18:29:00.734Z,81.699
2017-01-02T18:32:00.214Z,81.095
2017-01-02T18:35:05.652Z,81.036
2017-01-02T18:38:17.184Z,80.942
2017-01-02T18:41:16.493Z,81.097
2017-01-02T18:44:28.240Z,81.069
2017-01-02T18:47:33.531Z,81.316
2017-01-02T18:50:32.792Z,80.867
2017-01-02T18:53:44.444Z,80.920
2017-01-02T18:56:43.707Z,80.825
2017-01-02T18:59:49.350Z,80.430
2017-01-02T19:03:00.712Z,80.646
2017-01-02T19:06:05.837Z,80.628
2017-01-02T19:09:11.156Z,80.579
2017-01-02T19:12:16.454Z,80.145
2017-01-02T19:15:21.597Z,79.893
2017-01-02T19:18:26.800Z,80.079
2017-01-02T19:21:32.130Z,80.364
2017-01-02T19:24:31.640Z,80.162
2017-01-02T19:27:43.160Z,80.231
2017-01-02T19:30:48.218Z,80.445
2017-01-02T19:33:47.540Z,80.151
2017-01-02T19:36:51.537Z,80.019
2017-01-02T19:40:04.747Z,79.666
2017-01-02T19:43:09.891Z,79.448
2017-01-02T19:46:15.068Z,79.330
2017-01-02T19:49:14.096Z,79.819
2017-01-02T19:52:25.701Z,80.204
2017-01-02T19:55:31.012Z,80.358
2017-01-02T19:58:36.210Z,81.004
2017-01-02T20:01:35.612Z,81.077
2017-01-02T20:04:41.248Z,81.240
2017-01-02T20:07:52.816Z,81.261
2017-01-02T20:10:58.011Z,81.124
2017-01-02T20:14:03.057Z,81.495
2017-01-02T20:17:08.274Z,81.390
2017-01-02T20:20:13.488Z,81.636
2017-01-02T20:23:18.731Z,81.764
2017-01-02T20:26:18.082Z,81.495
2017-01-02T20:29:29.296Z,81.640
2017-01-02T20:32:34.452Z,82.104
2017-01-02T20:35:39.566Z,81.985
2017-01-02T20:38:38.788Z,82.070
2017-01-02T20:41:44.408Z,81.773
2017-01-02T20:44:50.036Z,82.205
2017-01-02T20:48:01.649Z,82.287
2017-01-02T20:51:06.896Z,82.414
2017-01-02T20:54:12.095Z,82.456
2017-01-02T20:57:17.166Z,82.908
2017-01-02T21:00:22.426Z,83.718
2017-01-02T21:03:27.706Z,84.221
2017-01-02T21:06:32.942Z,85.092
2017-01-02T21:09:32.105Z,85.550
2017-01-02T21:12:37.681Z,86.212
2017-01-02T21:15:43.272Z,86.194
2017-01-02T21:18:55.018Z,85.671
2017-01-02T21:21:59.891Z,86.253
2017-01-02T21:24:59.146Z,86.097
2017-01-02T21:28:04.600Z,86.236
2017-01-02T21:31:16.074Z,85.822
2017-01-02T21:34:21.632Z,85.802
2017-01-02T21:37:26.798Z,86.020
2017-01-02T21:40:32.008Z,86.052
2017-01-02T21:43:37.226Z,86.084
2017-01-02T21:46:42.464Z,85.931
2017-01-02T21:49:42.042Z,85.648
2017-01-02T21:52:53.155Z,85.583
2017-01-02T21:59:04.119Z,85.729
2017-01-02T22:02:09.352Z,85.709
2017-01-02T22:05:14.951Z,85.749
2017-01-02T22:08:19.747Z,86.176
2017-01-02T22:11:25.012Z,85.830
2017-01-02T22:14:24.144Z,85.337
2017-01-02T22:17:35.832Z,85.350
2017-01-02T22:20:35.144Z,85.250
2017-01-02T22:23:46.775Z,85.612
2017-01-02T22:26:46.117Z,85.522
2017-01-02T22:29:57.616Z,85.173
2017-01-02T22:32:57.024Z,85.646
2017-01-02T22:36:02.696Z,85.482
2017-01-02T22:39:14.211Z,85.280
2017-01-02T22:42:13.535Z,85.585
2017-01-02T22:45:25.155Z,86.237
2017-01-02T22:48:30.384Z,85.458
2017-01-02T22:51:35.646Z,85.837
2017-01-02T22:54:35.136Z,85.495
2017-01-02T22:57:40.777Z,85.315
2017-01-02T23:00:52.275Z,85.398
2017-01-02T23:03:51.533Z,85.052
2017-01-02T23:06:57.249Z,85.334
2017-01-02T23:10:02.819Z,84.927
2017-01-02T23:13:14.546Z,84.950
2017-01-02T23:16:19.839Z,85.298
2017-01-02T23:19:25.071Z,85.356
2017-01-02T23:22:30.211Z,85.689
2017-01-02T23:25:35.523Z,85.495
2017-01-02T23:28:40.799Z,85.560
2017-01-02T23:31:45.988Z,85.588
2017-01-02T23:34:45.296Z,85.542
2017-01-02T23:37:50.920Z,85.784
2017-01-02T23:40:56.460Z,86.079
2017-01-02T23:44:07.914Z,86.084
2017-01-02T23:47:13.168Z,86.300
2017-01-02T23:50:18.523Z,86.496
2017-01-02T23:56:29.300Z,86.148
2017-01-02T23:59:28.515Z,85.952
